sensor_id;sensor_type;location;lat;lon;timestamp;P1;durP1;ratioP1;P2;durP2;ratioP2
56267;SDS011;42175;46.930;9.532;2023-08-07T00:00:27;5.53;;;1.63;;
56267;SDS011;42175;46.930;9.532;2023-08-07T00:02:53;7.43;;;1.65;;
56267;SDS011;42175;46.930;9.532;2023-08-07T00:05:19;7.78;;;1.88;;
56267;SDS011;42175;46.930;9.532;2023-08-07T00:07:44;4.57;;;2.03;;
56267;SDS011;42175;46.930;9.532;2023-08-07T00:10:10;3.97;;;1.48;;
56267;SDS011;42175;46.930;9.532;2023-08-07T00:12:36;3.75;;;1.58;;
56267;SDS011;42175;46.930;9.532;2023-08-07T00:15:02;8.93;;;2.13;;
56267;SDS011;42175;46.930;9.532;2023-08-07T00:17:28;7.57;;;1.60;;
56267;SDS011;42175;46.930;9.532;2023-08-07T00:19:54;4.43;;;1.67;;
56267;SDS011;42175;46.930;9.532;2023-08-07T00:22:20;7.13;;;1.75;;
56267;SDS011;42175;46.930;9.532;2023-08-07T00:24:46;3.30;;;1.45;;
56267;SDS011;42175;46.930;9.532;2023-08-07T00:27:12;3.15;;;1.80;;
56267;SDS011;42175;46.930;9.532;2023-08-07T00:29:38;3.17;;;1.42;;
56267;SDS011;42175;46.930;9.532;2023-08-07T00:32:04;4.43;;;1.60;;
56267;SDS011;42175;46.930;9.532;2023-08-07T00:34:30;7.38;;;1.83;;
56267;SDS011;42175;46.930;9.532;2023-08-07T00:36:56;3.78;;;1.60;;
56267;SDS011;42175;46.930;9.532;2023-08-07T00:39:22;2.63;;;1.70;;
56267;SDS011;42175;46.930;9.532;2023-08-07T00:41:48;4.18;;;1.88;;
56267;SDS011;42175;46.930;9.532;2023-08-07T00:44:13;3.42;;;1.42;;
56267;SDS011;42175;46.930;9.532;2023-08-07T00:46:39;4.97;;;1.95;;
56267;SDS011;42175;46.930;9.532;2023-08-07T00:49:05;17.17;;;2.42;;
56267;SDS011;42175;46.930;9.532;2023-08-07T00:51:34;6.10;;;1.67;;
56267;SDS011;42175;46.930;9.532;2023-08-07T00:54:00;3.00;;;1.40;;
56267;SDS011;42175;46.930;9.532;2023-08-07T00:56:28;3.72;;;1.23;;
56267;SDS011;42175;46.930;9.532;2023-08-07T00:58:55;7.07;;;2.03;;
56267;SDS011;42175;46.930;9.532;2023-08-07T01:01:22;6.00;;;1.67;;
56267;SDS011;42175;46.930;9.532;2023-08-07T01:03:47;4.43;;;1.60;;
56267;SDS011;42175;46.930;9.532;2023-08-07T01:06:14;7.10;;;1.70;;
56267;SDS011;42175;46.930;9.532;2023-08-07T01:08:40;3.15;;;1.80;;
56267;SDS011;42175;46.930;9.532;2023-08-07T01:16:22;4.80;;;1.65;;
56267;SDS011;42175;46.930;9.532;2023-08-07T01:18:57;2.85;;;1.70;;
56267;SDS011;42175;46.930;9.532;2023-08-07T01:21:26;3.13;;;1.42;;
56267;SDS011;42175;46.930;9.532;2023-08-07T01:23:52;8.30;;;1.77;;
56267;SDS011;42175;46.930;9.532;2023-08-07T01:26:18;4.13;;;1.67;;
56267;SDS011;42175;46.930;9.532;2023-08-07T01:28:58;3.47;;;1.27;;
56267;SDS011;42175;46.930;9.532;2023-08-07T01:31:31;2.80;;;1.55;;
56267;SDS011;42175;46.930;9.532;2023-08-07T01:34:02;6.65;;;1.85;;
56267;SDS011;42175;46.930;9.532;2023-08-07T01:36:31;5.25;;;1.60;;
56267;SDS011;42175;46.930;9.532;2023-08-07T01:38:59;4.60;;;1.45;;
56267;SDS011;42175;46.930;9.532;2023-08-07T01:41:26;4.88;;;1.40;;
56267;SDS011;42175;46.930;9.532;2023-08-07T01:43:52;7.55;;;1.67;;
56267;SDS011;42175;46.930;9.532;2023-08-07T01:46:20;4.63;;;1.75;;
56267;SDS011;42175;46.930;9.532;2023-08-07T01:48:46;5.43;;;1.30;;
56267;SDS011;42175;46.930;9.532;2023-08-07T01:51:12;8.38;;;1.77;;
56267;SDS011;42175;46.930;9.532;2023-08-07T01:53:37;5.25;;;1.52;;
56267;SDS011;42175;46.930;9.532;2023-08-07T01:56:03;4.65;;;1.50;;
56267;SDS011;42175;46.930;9.532;2023-08-07T01:58:29;3.13;;;1.70;;
56267;SDS011;42175;46.930;9.532;2023-08-07T02:00:55;3.28;;;1.63;;
56267;SDS011;42175;46.930;9.532;2023-08-07T02:03:20;4.28;;;1.52;;
56267;SDS011;42175;46.930;9.532;2023-08-07T02:05:46;4.07;;;1.50;;
56267;SDS011;42175;46.930;9.532;2023-08-07T02:08:12;3.97;;;1.50;;
56267;SDS011;42175;46.930;9.532;2023-08-07T02:10:39;3.13;;;1.40;;
56267;SDS011;42175;46.930;9.532;2023-08-07T02:13:04;4.72;;;1.27;;
56267;SDS011;42175;46.930;9.532;2023-08-07T02:15:30;4.90;;;1.70;;
56267;SDS011;42175;46.930;9.532;2023-08-07T02:17:56;3.63;;;1.85;;
56267;SDS011;42175;46.930;9.532;2023-08-07T02:20:22;2.42;;;1.50;;
56267;SDS011;42175;46.930;9.532;2023-08-07T02:22:47;2.83;;;1.52;;
56267;SDS011;42175;46.930;9.532;2023-08-07T02:25:13;6.90;;;1.50;;
56267;SDS011;42175;46.930;9.532;2023-08-07T02:27:39;2.38;;;1.52;;
56267;SDS011;42175;46.930;9.532;2023-08-07T02:30:05;10.23;;;1.75;;
56267;SDS011;42175;46.930;9.532;2023-08-07T02:32:31;4.50;;;1.52;;
56267;SDS011;42175;46.930;9.532;2023-08-07T02:34:57;3.40;;;1.42;;
56267;SDS011;42175;46.930;9.532;2023-08-07T02:37:23;2.70;;;1.52;;
56267;SDS011;42175;46.930;9.532;2023-08-07T02:39:49;5.22;;;1.70;;
56267;SDS011;42175;46.930;9.532;2023-08-07T02:42:14;4.75;;;1.73;;
56267;SDS011;42175;46.930;9.532;2023-08-07T02:44:40;2.97;;;1.60;;
56267;SDS011;42175;46.930;9.532;2023-08-07T02:47:06;2.30;;;1.45;;
56267;SDS011;42175;46.930;9.532;2023-08-07T02:49:31;9.90;;;1.73;;
56267;SDS011;42175;46.930;9.532;2023-08-07T02:51:57;6.72;;;1.67;;
56267;SDS011;42175;46.930;9.532;2023-08-07T02:54:23;3.47;;;1.70;;
56267;SDS011;42175;46.930;9.532;2023-08-07T02:56:49;5.65;;;1.48;;
56267;SDS011;42175;46.930;9.532;2023-08-07T02:59:15;2.15;;;1.45;;
56267;SDS011;42175;46.930;9.532;2023-08-07T03:01:41;7.03;;;1.70;;
56267;SDS011;42175;46.930;9.532;2023-08-07T03:04:08;2.17;;;1.50;;
56267;SDS011;42175;46.930;9.532;2023-08-07T03:06:34;3.88;;;1.73;;
56267;SDS011;42175;46.930;9.532;2023-08-07T03:09:00;4.78;;;1.88;;
56267;SDS011;42175;46.930;9.532;2023-08-07T03:11:26;3.28;;;1.63;;
56267;SDS011;42175;46.930;9.532;2023-08-07T03:13:51;2.58;;;1.48;;
56267;SDS011;42175;46.930;9.532;2023-08-07T03:16:17;4.05;;;1.60;;
56267;SDS011;42175;46.930;9.532;2023-08-07T03:18:43;2.67;;;1.50;;
56267;SDS011;42175;46.930;9.532;2023-08-07T03:21:09;2.03;;;1.27;;
56267;SDS011;42175;46.930;9.532;2023-08-07T03:23:34;2.70;;;1.58;;
56267;SDS011;42175;46.930;9.532;2023-08-07T03:26:04;3.70;;;1.45;;
56267;SDS011;42175;46.930;9.532;2023-08-07T03:28:35;3.30;;;1.70;;
56267;SDS011;42175;46.930;9.532;2023-08-07T03:31:01;4.97;;;1.75;;
56267;SDS011;42175;46.930;9.532;2023-08-07T03:33:28;6.13;;;1.40;;
56267;SDS011;42175;46.930;9.532;2023-08-07T03:35:53;3.38;;;1.50;;
56267;SDS011;42175;46.930;9.532;2023-08-07T03:38:19;6.13;;;1.60;;
56267;SDS011;42175;46.930;9.532;2023-08-07T03:40:45;3.20;;;1.80;;
56267;SDS011;42175;46.930;9.532;2023-08-07T03:43:11;2.95;;;1.70;;
56267;SDS011;42175;46.930;9.532;2023-08-07T03:45:37;2.85;;;1.75;;
56267;SDS011;42175;46.930;9.532;2023-08-07T03:48:04;7.13;;;1.55;;
56267;SDS011;42175;46.930;9.532;2023-08-07T03:50:30;3.75;;;1.83;;
56267;SDS011;42175;46.930;9.532;2023-08-07T03:52:59;3.97;;;1.45;;
56267;SDS011;42175;46.930;9.532;2023-08-07T03:55:26;7.32;;;1.90;;
56267;SDS011;42175;46.930;9.532;2023-08-07T03:57:52;4.57;;;1.50;;
56267;SDS011;42175;46.930;9.532;2023-08-07T04:00:17;4.57;;;1.83;;
56267;SDS011;42175;46.930;9.532;2023-08-07T04:02:44;3.45;;;1.55;;
56267;SDS011;42175;46.930;9.532;2023-08-07T04:05:10;3.42;;;1.40;;
56267;SDS011;42175;46.930;9.532;2023-08-07T04:07:36;5.20;;;1.80;;
56267;SDS011;42175;46.930;9.532;2023-08-07T04:10:01;2.50;;;1.55;;
56267;SDS011;42175;46.930;9.532;2023-08-07T04:12:27;3.38;;;2.03;;
56267;SDS011;42175;46.930;9.532;2023-08-07T04:14:53;3.22;;;1.80;;
56267;SDS011;42175;46.930;9.532;2023-08-07T04:17:19;2.90;;;1.42;;
56267;SDS011;42175;46.930;9.532;2023-08-07T04:19:45;4.40;;;1.48;;
56267;SDS011;42175;46.930;9.532;2023-08-07T04:22:10;4.15;;;1.73;;
56267;SDS011;42175;46.930;9.532;2023-08-07T04:24:36;3.78;;;1.67;;
56267;SDS011;42175;46.930;9.532;2023-08-07T04:27:02;4.03;;;1.40;;
56267;SDS011;42175;46.930;9.532;2023-08-07T04:29:28;3.05;;;1.10;;
56267;SDS011;42175;46.930;9.532;2023-08-07T04:31:54;4.75;;;1.90;;
56267;SDS011;42175;46.930;9.532;2023-08-07T04:34:19;2.40;;;0.95;;
56267;SDS011;42175;46.930;9.532;2023-08-07T04:36:45;5.50;;;1.25;;
56267;SDS011;42175;46.930;9.532;2023-08-07T04:39:11;1.90;;;1.20;;
56267;SDS011;42175;46.930;9.532;2023-08-07T04:41:38;4.13;;;1.13;;
56267;SDS011;42175;46.930;9.532;2023-08-07T04:44:04;4.13;;;1.10;;
56267;SDS011;42175;46.930;9.532;2023-08-07T04:46:30;2.83;;;1.15;;
56267;SDS011;42175;46.930;9.532;2023-08-07T04:48:56;3.85;;;1.48;;
56267;SDS011;42175;46.930;9.532;2023-08-07T04:51:21;3.15;;;1.20;;
56267;SDS011;42175;46.930;9.532;2023-08-07T04:53:48;2.97;;;1.40;;
56267;SDS011;42175;46.930;9.532;2023-08-07T04:56:15;2.15;;;1.17;;
56267;SDS011;42175;46.930;9.532;2023-08-07T04:58:42;5.20;;;1.52;;
56267;SDS011;42175;46.930;9.532;2023-08-07T05:01:08;7.28;;;1.42;;
56267;SDS011;42175;46.930;9.532;2023-08-07T05:03:34;4.03;;;1.20;;
56267;SDS011;42175;46.930;9.532;2023-08-07T05:06:00;3.92;;;1.35;;
56267;SDS011;42175;46.930;9.532;2023-08-07T05:08:26;2.65;;;1.60;;
56267;SDS011;42175;46.930;9.532;2023-08-07T05:10:52;4.28;;;1.55;;
56267;SDS011;42175;46.930;9.532;2023-08-07T05:13:17;2.60;;;1.23;;
56267;SDS011;42175;46.930;9.532;2023-08-07T05:15:43;5.50;;;1.40;;
56267;SDS011;42175;46.930;9.532;2023-08-07T05:18:11;1.90;;;0.85;;
56267;SDS011;42175;46.930;9.532;2023-08-07T05:20:37;3.88;;;1.10;;
56267;SDS011;42175;46.930;9.532;2023-08-07T05:23:03;3.20;;;1.40;;
56267;SDS011;42175;46.930;9.532;2023-08-07T05:25:28;3.10;;;1.20;;
56267;SDS011;42175;46.930;9.532;2023-08-07T05:27:54;4.53;;;1.58;;
56267;SDS011;42175;46.930;9.532;2023-08-07T05:30:20;3.35;;;1.60;;
56267;SDS011;42175;46.930;9.532;2023-08-07T05:32:45;5.63;;;1.90;;
56267;SDS011;42175;46.930;9.532;2023-08-07T05:35:11;6.07;;;2.00;;
56267;SDS011;42175;46.930;9.532;2023-08-07T05:37:37;7.38;;;1.90;;
56267;SDS011;42175;46.930;9.532;2023-08-07T05:40:03;7.07;;;1.90;;
56267;SDS011;42175;46.930;9.532;2023-08-07T05:42:29;6.80;;;2.13;;
56267;SDS011;42175;46.930;9.532;2023-08-07T05:44:55;6.18;;;1.80;;
56267;SDS011;42175;46.930;9.532;2023-08-07T05:47:21;8.00;;;1.73;;
56267;SDS011;42175;46.930;9.532;2023-08-07T05:49:46;8.20;;;1.70;;
56267;SDS011;42175;46.930;9.532;2023-08-07T05:52:13;16.00;;;2.92;;
56267;SDS011;42175;46.930;9.532;2023-08-07T05:54:39;10.77;;;2.38;;
56267;SDS011;42175;46.930;9.532;2023-08-07T05:57:05;9.43;;;2.92;;
56267;SDS011;42175;46.930;9.532;2023-08-07T05:59:31;10.40;;;2.35;;
56267;SDS011;42175;46.930;9.532;2023-08-07T06:01:59;7.25;;;2.30;;
56267;SDS011;42175;46.930;9.532;2023-08-07T06:04:25;10.27;;;2.70;;
56267;SDS011;42175;46.930;9.532;2023-08-07T06:06:51;12.48;;;2.72;;
56267;SDS011;42175;46.930;9.532;2023-08-07T06:09:16;6.53;;;2.22;;
56267;SDS011;42175;46.930;9.532;2023-08-07T06:11:42;10.50;;;2.70;;
56267;SDS011;42175;46.930;9.532;2023-08-07T06:14:08;11.38;;;2.65;;
56267;SDS011;42175;46.930;9.532;2023-08-07T06:16:34;7.80;;;1.98;;
56267;SDS011;42175;46.930;9.532;2023-08-07T06:19:00;8.18;;;2.63;;
56267;SDS011;42175;46.930;9.532;2023-08-07T06:21:25;6.63;;;2.53;;
56267;SDS011;42175;46.930;9.532;2023-08-07T06:23:53;8.02;;;2.08;;
56267;SDS011;42175;46.930;9.532;2023-08-07T06:26:19;9.25;;;2.03;;
56267;SDS011;42175;46.930;9.532;2023-08-07T06:28:45;10.85;;;2.05;;
56267;SDS011;42175;46.930;9.532;2023-08-07T06:31:11;6.95;;;2.13;;
56267;SDS011;42175;46.930;9.532;2023-08-07T06:33:38;6.57;;;1.50;;
56267;SDS011;42175;46.930;9.532;2023-08-07T06:36:04;4.57;;;1.58;;
56267;SDS011;42175;46.930;9.532;2023-08-07T06:38:30;5.53;;;1.90;;
56267;SDS011;42175;46.930;9.532;2023-08-07T06:40:56;7.57;;;1.95;;
56267;SDS011;42175;46.930;9.532;2023-08-07T06:43:22;5.35;;;1.42;;
56267;SDS011;42175;46.930;9.532;2023-08-07T06:45:54;3.38;;;1.38;;
56267;SDS011;42175;46.930;9.532;2023-08-07T06:48:21;4.93;;;1.40;;
56267;SDS011;42175;46.930;9.532;2023-08-07T06:50:47;9.90;;;1.60;;
56267;SDS011;42175;46.930;9.532;2023-08-07T06:53:14;6.38;;;1.85;;
56267;SDS011;42175;46.930;9.532;2023-08-07T06:55:43;4.10;;;1.60;;
56267;SDS011;42175;46.930;9.532;2023-08-07T06:58:10;5.20;;;1.70;;
56267;SDS011;42175;46.930;9.532;2023-08-07T07:00:36;6.07;;;1.63;;
56267;SDS011;42175;46.930;9.532;2023-08-07T07:03:02;4.93;;;1.35;;
56267;SDS011;42175;46.930;9.532;2023-08-07T07:05:29;4.53;;;1.50;;
56267;SDS011;42175;46.930;9.532;2023-08-07T07:07:55;4.97;;;1.70;;
56267;SDS011;42175;46.930;9.532;2023-08-07T07:10:22;5.50;;;1.67;;
56267;SDS011;42175;46.930;9.532;2023-08-07T07:12:47;4.53;;;1.73;;
56267;SDS011;42175;46.930;9.532;2023-08-07T07:15:13;7.18;;;1.98;;
56267;SDS011;42175;46.930;9.532;2023-08-07T07:17:39;4.47;;;1.40;;
56267;SDS011;42175;46.930;9.532;2023-08-07T07:20:05;4.75;;;1.55;;
56267;SDS011;42175;46.930;9.532;2023-08-07T07:22:34;5.97;;;2.22;;
56267;SDS011;42175;46.930;9.532;2023-08-07T07:25:00;4.88;;;1.48;;
56267;SDS011;42175;46.930;9.532;2023-08-07T07:27:25;5.60;;;1.85;;
56267;SDS011;42175;46.930;9.532;2023-08-07T07:29:51;3.92;;;1.55;;
56267;SDS011;42175;46.930;9.532;2023-08-07T07:32:17;2.40;;;1.17;;
56267;SDS011;42175;46.930;9.532;2023-08-07T07:34:43;5.53;;;1.60;;
56267;SDS011;42175;46.930;9.532;2023-08-07T07:37:09;3.53;;;1.63;;
56267;SDS011;42175;46.930;9.532;2023-08-07T07:39:35;2.85;;;1.55;;
56267;SDS011;42175;46.930;9.532;2023-08-07T07:42:01;3.28;;;1.48;;
56267;SDS011;42175;46.930;9.532;2023-08-07T07:44:28;4.88;;;2.38;;
56267;SDS011;42175;46.930;9.532;2023-08-07T07:46:54;5.43;;;1.70;;
56267;SDS011;42175;46.930;9.532;2023-08-07T07:49:20;4.30;;;1.92;;
56267;SDS011;42175;46.930;9.532;2023-08-07T07:51:45;12.25;;;1.92;;
56267;SDS011;42175;46.930;9.532;2023-08-07T07:54:11;3.47;;;1.30;;
56267;SDS011;42175;46.930;9.532;2023-08-07T07:56:37;8.70;;;1.23;;
56267;SDS011;42175;46.930;9.532;2023-08-07T07:59:02;4.63;;;1.65;;
56267;SDS011;42175;46.930;9.532;2023-08-07T08:01:28;5.15;;;1.50;;
56267;SDS011;42175;46.930;9.532;2023-08-07T08:03:54;2.33;;;1.35;;
56267;SDS011;42175;46.930;9.532;2023-08-07T08:06:19;2.90;;;1.33;;
56267;SDS011;42175;46.930;9.532;2023-08-07T08:08:45;3.72;;;1.42;;
56267;SDS011;42175;46.930;9.532;2023-08-07T08:11:11;6.38;;;1.65;;
56267;SDS011;42175;46.930;9.532;2023-08-07T08:13:36;7.22;;;1.40;;
56267;SDS011;42175;46.930;9.532;2023-08-07T08:16:04;2.65;;;1.38;;
56267;SDS011;42175;46.930;9.532;2023-08-07T08:18:30;5.47;;;1.75;;
56267;SDS011;42175;46.930;9.532;2023-08-07T08:20:56;4.20;;;1.30;;
56267;SDS011;42175;46.930;9.532;2023-08-07T08:23:21;5.72;;;1.42;;
56267;SDS011;42175;46.930;9.532;2023-08-07T08:25:47;4.35;;;1.50;;
56267;SDS011;42175;46.930;9.532;2023-08-07T08:28:14;13.38;;;2.05;;
56267;SDS011;42175;46.930;9.532;2023-08-07T08:30:40;10.35;;;1.70;;
56267;SDS011;42175;46.930;9.532;2023-08-07T08:33:06;8.57;;;1.65;;
56267;SDS011;42175;46.930;9.532;2023-08-07T08:35:34;7.63;;;1.60;;
56267;SDS011;42175;46.930;9.532;2023-08-07T08:38:00;4.10;;;1.92;;
56267;SDS011;42175;46.930;9.532;2023-08-07T08:40:26;7.90;;;2.15;;
56267;SDS011;42175;46.930;9.532;2023-08-07T08:42:52;5.72;;;2.20;;
56267;SDS011;42175;46.930;9.532;2023-08-07T08:45:22;21.17;;;4.70;;
56267;SDS011;42175;46.930;9.532;2023-08-07T08:47:50;31.30;;;6.03;;
56267;SDS011;42175;46.930;9.532;2023-08-07T08:50:16;32.63;;;6.57;;
56267;SDS011;42175;46.930;9.532;2023-08-07T08:52:43;46.38;;;9.00;;
56267;SDS011;42175;46.930;9.532;2023-08-07T08:55:09;108.30;;;29.80;;
56267;SDS011;42175;46.930;9.532;2023-08-07T08:57:37;90.03;;;24.48;;
56267;SDS011;42175;46.930;9.532;2023-08-07T09:00:05;134.60;;;33.63;;
56267;SDS011;42175;46.930;9.532;2023-08-07T09:02:43;119.68;;;35.28;;
56267;SDS011;42175;46.930;9.532;2023-08-07T09:05:10;180.00;;;56.95;;
56267;SDS011;42175;46.930;9.532;2023-08-07T09:07:35;151.07;;;49.92;;
56267;SDS011;42175;46.930;9.532;2023-08-07T09:10:03;182.02;;;66.47;;
56267;SDS011;42175;46.930;9.532;2023-08-07T09:12:29;262.23;;;96.70;;
56267;SDS011;42175;46.930;9.532;2023-08-07T09:14:58;274.50;;;98.95;;
56267;SDS011;42175;46.930;9.532;2023-08-07T09:17:29;275.27;;;102.32;;
56267;SDS011;42175;46.930;9.532;2023-08-07T09:19:59;262.75;;;95.43;;
56267;SDS011;42175;46.930;9.532;2023-08-07T09:22:25;237.77;;;88.85;;
56267;SDS011;42175;46.930;9.532;2023-08-07T09:24:51;261.00;;;97.78;;
56267;SDS011;42175;46.930;9.532;2023-08-07T09:27:17;235.63;;;86.70;;
56267;SDS011;42175;46.930;9.532;2023-08-07T09:29:43;225.15;;;85.82;;
56267;SDS011;42175;46.930;9.532;2023-08-07T09:32:11;220.57;;;84.45;;
56267;SDS011;42175;46.930;9.532;2023-08-07T09:34:41;242.95;;;86.35;;
56267;SDS011;42175;46.930;9.532;2023-08-07T09:37:10;198.55;;;80.07;;
56267;SDS011;42175;46.930;9.532;2023-08-07T09:39:36;212.35;;;82.20;;
56267;SDS011;42175;46.930;9.532;2023-08-07T09:42:03;211.50;;;80.55;;
56267;SDS011;42175;46.930;9.532;2023-08-07T09:44:35;210.27;;;75.93;;
56267;SDS011;42175;46.930;9.532;2023-08-07T09:47:15;219.77;;;76.90;;
56267;SDS011;42175;46.930;9.532;2023-08-07T09:49:43;183.27;;;73.72;;
56267;SDS011;42175;46.930;9.532;2023-08-07T09:52:10;198.88;;;73.95;;
56267;SDS011;42175;46.930;9.532;2023-08-07T09:54:40;189.38;;;73.32;;
56267;SDS011;42175;46.930;9.532;2023-08-07T09:57:07;184.43;;;69.22;;
56267;SDS011;42175;46.930;9.532;2023-08-07T09:59:33;176.25;;;71.45;;
56267;SDS011;42175;46.930;9.532;2023-08-07T10:02:03;164.80;;;68.63;;
56267;SDS011;42175;46.930;9.532;2023-08-07T10:04:29;157.75;;;64.45;;
56267;SDS011;42175;46.930;9.532;2023-08-07T10:06:56;170.00;;;69.20;;
56267;SDS011;42175;46.930;9.532;2023-08-07T10:09:23;180.43;;;67.07;;
56267;SDS011;42175;46.930;9.532;2023-08-07T10:11:49;159.38;;;62.75;;
56267;SDS011;42175;46.930;9.532;2023-08-07T10:14:15;64.57;;;27.75;;
56267;SDS011;42175;46.930;9.532;2023-08-07T10:16:41;19.45;;;6.03;;
56267;SDS011;42175;46.930;9.532;2023-08-07T10:19:08;13.85;;;5.15;;
56267;SDS011;42175;46.930;9.532;2023-08-07T10:21:35;23.20;;;9.02;;
56267;SDS011;42175;46.930;9.532;2023-08-07T10:24:04;11.27;;;3.80;;
56267;SDS011;42175;46.930;9.532;2023-08-07T10:26:32;14.57;;;4.30;;
56267;SDS011;42175;46.930;9.532;2023-08-07T10:29:03;18.60;;;6.28;;
56267;SDS011;42175;46.930;9.532;2023-08-07T10:31:33;6.65;;;2.20;;
56267;SDS011;42175;46.930;9.532;2023-08-07T10:34:01;6.03;;;2.38;;
56267;SDS011;42175;46.930;9.532;2023-08-07T10:36:34;5.88;;;2.58;;
56267;SDS011;42175;46.930;9.532;2023-08-07T10:39:07;3.92;;;2.30;;
56267;SDS011;42175;46.930;9.532;2023-08-07T10:41:42;5.13;;;1.60;;
56267;SDS011;42175;46.930;9.532;2023-08-07T10:44:20;5.55;;;2.08;;
56267;SDS011;42175;46.930;9.532;2023-08-07T10:46:54;2.80;;;1.20;;
56267;SDS011;42175;46.930;9.532;2023-08-07T10:49:34;2.53;;;1.65;;
56267;SDS011;42175;46.930;9.532;2023-08-07T10:52:09;5.57;;;1.80;;
56267;SDS011;42175;46.930;9.532;2023-08-07T10:54:46;6.55;;;2.22;;
56267;SDS011;42175;46.930;9.532;2023-08-07T10:57:15;7.10;;;2.60;;
56267;SDS011;42175;46.930;9.532;2023-08-07T11:02:25;16.45;;;3.47;;
56267;SDS011;42175;46.930;9.532;2023-08-07T11:04:53;9.82;;;3.05;;
56267;SDS011;42175;46.930;9.532;2023-08-07T11:07:26;10.32;;;2.90;;
56267;SDS011;42175;46.930;9.532;2023-08-07T11:09:54;7.30;;;3.67;;
56267;SDS011;42175;46.930;9.532;2023-08-07T11:12:21;8.00;;;3.25;;
56267;SDS011;42175;46.930;9.532;2023-08-07T11:14:51;8.70;;;3.13;;
56267;SDS011;42175;46.930;9.532;2023-08-07T11:17:18;8.23;;;2.70;;
56267;SDS011;42175;46.930;9.532;2023-08-07T11:19:46;6.97;;;2.78;;
56267;SDS011;42175;46.930;9.532;2023-08-07T11:22:14;10.73;;;2.92;;
56267;SDS011;42175;46.930;9.532;2023-08-07T11:24:45;8.18;;;3.42;;
56267;SDS011;42175;46.930;9.532;2023-08-07T11:27:11;7.85;;;3.15;;
56267;SDS011;42175;46.930;9.532;2023-08-07T11:29:37;8.80;;;3.13;;
56267;SDS011;42175;46.930;9.532;2023-08-07T11:32:02;7.03;;;2.95;;
56267;SDS011;42175;46.930;9.532;2023-08-07T11:34:28;6.72;;;3.17;;
56267;SDS011;42175;46.930;9.532;2023-08-07T11:36:54;8.70;;;3.47;;
56267;SDS011;42175;46.930;9.532;2023-08-07T11:39:20;5.22;;;2.47;;
56267;SDS011;42175;46.930;9.532;2023-08-07T11:41:46;7.78;;;2.33;;
56267;SDS011;42175;46.930;9.532;2023-08-07T11:44:13;9.35;;;2.38;;
56267;SDS011;42175;46.930;9.532;2023-08-07T11:46:39;9.95;;;2.60;;
56267;SDS011;42175;46.930;9.532;2023-08-07T11:49:05;6.90;;;2.50;;
56267;SDS011;42175;46.930;9.532;2023-08-07T11:51:30;4.45;;;2.50;;
56267;SDS011;42175;46.930;9.532;2023-08-07T11:53:57;6.50;;;2.80;;
56267;SDS011;42175;46.930;9.532;2023-08-07T11:56:24;5.85;;;2.25;;
56267;SDS011;42175;46.930;9.532;2023-08-07T11:58:50;4.65;;;2.42;;
56267;SDS011;42175;46.930;9.532;2023-08-07T12:01:19;5.10;;;2.22;;
56267;SDS011;42175;46.930;9.532;2023-08-07T12:06:22;5.85;;;2.60;;
56267;SDS011;42175;46.930;9.532;2023-08-07T12:08:49;6.05;;;2.33;;
56267;SDS011;42175;46.930;9.532;2023-08-07T12:11:19;4.75;;;2.47;;
56267;SDS011;42175;46.930;9.532;2023-08-07T12:13:46;7.03;;;2.13;;
56267;SDS011;42175;46.930;9.532;2023-08-07T12:16:13;5.85;;;2.33;;
56267;SDS011;42175;46.930;9.532;2023-08-07T12:18:47;4.25;;;2.35;;
56267;SDS011;42175;46.930;9.532;2023-08-07T12:21:14;4.47;;;2.30;;
56267;SDS011;42175;46.930;9.532;2023-08-07T12:23:43;7.40;;;2.30;;
56267;SDS011;42175;46.930;9.532;2023-08-07T12:26:09;6.57;;;2.42;;
56267;SDS011;42175;46.930;9.532;2023-08-07T12:28:35;5.43;;;2.50;;
56267;SDS011;42175;46.930;9.532;2023-08-07T12:31:01;4.85;;;2.22;;
56267;SDS011;42175;46.930;9.532;2023-08-07T12:33:30;5.40;;;2.15;;
56267;SDS011;42175;46.930;9.532;2023-08-07T12:35:57;4.88;;;2.22;;
56267;SDS011;42175;46.930;9.532;2023-08-07T12:38:23;4.22;;;2.20;;
56267;SDS011;42175;46.930;9.532;2023-08-07T12:40:49;3.65;;;2.30;;
56267;SDS011;42175;46.930;9.532;2023-08-07T12:43:15;3.80;;;2.30;;
56267;SDS011;42175;46.930;9.532;2023-08-07T12:45:41;4.38;;;1.88;;
56267;SDS011;42175;46.930;9.532;2023-08-07T12:48:07;5.43;;;2.33;;
56267;SDS011;42175;46.930;9.532;2023-08-07T12:50:33;4.57;;;1.80;;
56267;SDS011;42175;46.930;9.532;2023-08-07T12:52:59;5.55;;;2.65;;
56267;SDS011;42175;46.930;9.532;2023-08-07T12:55:26;4.25;;;2.20;;
56267;SDS011;42175;46.930;9.532;2023-08-07T12:57:53;9.35;;;2.40;;
56267;SDS011;42175;46.930;9.532;2023-08-07T13:00:20;15.35;;;3.42;;
56267;SDS011;42175;46.930;9.532;2023-08-07T13:02:48;6.82;;;2.45;;
56267;SDS011;42175;46.930;9.532;2023-08-07T13:05:15;5.07;;;2.08;;
56267;SDS011;42175;46.930;9.532;2023-08-07T13:07:43;6.40;;;2.45;;
56267;SDS011;42175;46.930;9.532;2023-08-07T13:10:11;4.75;;;1.98;;
56267;SDS011;42175;46.930;9.532;2023-08-07T13:12:38;8.13;;;2.50;;
56267;SDS011;42175;46.930;9.532;2023-08-07T13:15:05;13.70;;;2.65;;
56267;SDS011;42175;46.930;9.532;2023-08-07T13:17:38;4.43;;;2.00;;
56267;SDS011;42175;46.930;9.532;2023-08-07T13:20:04;6.68;;;2.33;;
56267;SDS011;42175;46.930;9.532;2023-08-07T13:22:36;5.22;;;2.45;;
56267;SDS011;42175;46.930;9.532;2023-08-07T13:25:03;5.13;;;2.08;;
56267;SDS011;42175;46.930;9.532;2023-08-07T13:27:30;5.00;;;2.20;;
56267;SDS011;42175;46.930;9.532;2023-08-07T13:29:56;8.35;;;1.98;;
56267;SDS011;42175;46.930;9.532;2023-08-07T13:32:22;5.15;;;1.63;;
56267;SDS011;42175;46.930;9.532;2023-08-07T13:34:48;3.85;;;1.67;;
56267;SDS011;42175;46.930;9.532;2023-08-07T13:37:13;4.97;;;2.08;;
56267;SDS011;42175;46.930;9.532;2023-08-07T13:39:40;6.32;;;2.05;;
56267;SDS011;42175;46.930;9.532;2023-08-07T13:42:06;3.40;;;1.40;;
56267;SDS011;42175;46.930;9.532;2023-08-07T13:44:32;2.90;;;1.80;;
56267;SDS011;42175;46.930;9.532;2023-08-07T13:46:58;2.95;;;1.33;;
56267;SDS011;42175;46.930;9.532;2023-08-07T13:49:24;4.55;;;2.17;;
56267;SDS011;42175;46.930;9.532;2023-08-07T13:51:50;4.38;;;1.80;;
56267;SDS011;42175;46.930;9.532;2023-08-07T13:54:15;6.55;;;1.60;;
56267;SDS011;42175;46.930;9.532;2023-08-07T13:56:41;3.15;;;1.30;;
56267;SDS011;42175;46.930;9.532;2023-08-07T13:59:07;4.15;;;1.70;;
56267;SDS011;42175;46.930;9.532;2023-08-07T14:01:34;2.00;;;1.40;;
56267;SDS011;42175;46.930;9.532;2023-08-07T14:04:03;2.58;;;1.40;;
56267;SDS011;42175;46.930;9.532;2023-08-07T14:06:30;6.93;;;1.50;;
56267;SDS011;42175;46.930;9.532;2023-08-07T14:08:55;2.33;;;1.42;;
56267;SDS011;42175;46.930;9.532;2023-08-07T14:11:21;2.92;;;1.58;;
56267;SDS011;42175;46.930;9.532;2023-08-07T14:13:49;4.30;;;1.55;;
56267;SDS011;42175;46.930;9.532;2023-08-07T14:16:15;6.45;;;1.50;;
56267;SDS011;42175;46.930;9.532;2023-08-07T14:18:41;4.07;;;1.40;;
56267;SDS011;42175;46.930;9.532;2023-08-07T14:21:07;8.57;;;1.73;;
56267;SDS011;42175;46.930;9.532;2023-08-07T14:23:32;5.35;;;1.40;;
56267;SDS011;42175;46.930;9.532;2023-08-07T14:25:58;20.05;;;1.95;;
56267;SDS011;42175;46.930;9.532;2023-08-07T14:28:23;2.17;;;1.42;;
56267;SDS011;42175;46.930;9.532;2023-08-07T14:30:50;8.70;;;1.58;;
56267;SDS011;42175;46.930;9.532;2023-08-07T14:33:16;4.57;;;1.60;;
56267;SDS011;42175;46.930;9.532;2023-08-07T14:35:42;3.28;;;1.23;;
56267;SDS011;42175;46.930;9.532;2023-08-07T14:38:07;9.25;;;1.55;;
56267;SDS011;42175;46.930;9.532;2023-08-07T14:40:33;5.13;;;1.30;;
56267;SDS011;42175;46.930;9.532;2023-08-07T14:42:59;3.78;;;1.70;;
56267;SDS011;42175;46.930;9.532;2023-08-07T14:45:24;2.22;;;1.17;;
56267;SDS011;42175;46.930;9.532;2023-08-07T14:47:50;5.20;;;1.13;;
56267;SDS011;42175;46.930;9.532;2023-08-07T14:50:16;9.32;;;1.35;;